Traveller — PHAM — position and weather

sailwx.info

Track history (hours):
 
Tides and Currents Weather Stations Pressure Air Temp Water Temp Dewpoint Dewpoint Depression Visibility Wind Speed Wind Dir Waves Ship Positions

Traveller

Last reported at 2017-Jan-20 13:00 UTC. Time now 2017-Jan-20 14:03 UTC.
Position N 40°36' E 018°18'.

Length 101 m; beam 20 m.

Type: Ship. MMSI: 246111000.

Barometer 1027.8 mb

Date/timePositionNaut miles runAvg speedWind from/ knotsBaromVisibWave heightAir tempDewpointWater temp
2017-Jan-20 13:00N 40°36' E 018°18'1515.1 1027.8
2017-Jan-20 12:00N 40°48' E 018°06'1515.0 1028.0
2017-Jan-20 11:00N 41°00' E 017°54'1514.8 1028.4
2017-Jan-20 10:00N 41°06' E 017°36'1515.0 1029.1
2017-Jan-20 09:00N 41°18' E 017°24'1515.0 1029.3
2017-Jan-20 08:00N 41°30' E 017°12'1515.0 1029.0
2017-Jan-20 07:00N 41°42' E 017°00'1110.8 1028.9
2017-Jan-20 06:00N 41°48' E 016°48'1818.0 1028.3
2017-Jan-20 05:00N 42°00' E 016°30'1110.7 1028.1
2017-Jan-20 04:00N 42°06' E 016°18'1514.9 1028.1
2017-Jan-20 03:00N 42°18' E 016°06'1817.9 1028.2
2017-Jan-20 02:00N 42°30' E 015°48'1514.9 1028.6
2017-Jan-20 01:00N 42°42' E 015°36'1514.5 1028.4
2017-Jan-20 00:00N 42°48' E 015°18'1514.9 1028.6
2017-Jan-19 23:00N 43°00' E 015°06'1514.9 1028.9
2017-Jan-19 22:00N 43°12' E 014°54'1414.4 1029.1
2017-Jan-19 21:00N 43°18' E 014°36'1514.8 1029.2
2017-Jan-19 20:00N 43°30' E 014°24'1514.8 1029.0
2017-Jan-19 19:00N 43°42' E 014°12'1110.5 1028.4
2017-Jan-19 18:00N 43°48' E 014°00'1414.3 1028.2
2017-Jan-19 17:00N 43°54' E 013°42'1817.7 1027.9
2017-Jan-19 16:00N 44°06' E 013°24'1913.0 1028.1
2017-Jan-19 14:32N 44°21' E 013°08'1414.0
2017-Jan-19 13:32N 44°34' E 013°02'1010.2
2017-Jan-19 12:32N 44°44' E 012°58'1110.9
2017-Jan-19 11:33N 44°54' E 012°51'1414.0
2017-Jan-19 10:34N 45°06' E 012°42'9 9.1
2017-Jan-19 09:34N 45°11' E 012°32'8 8.3
2017-Jan-19 08:33N 45°14' E 012°21'4 3.6
2017-Jan-19 07:31N 45°13' E 012°16'0 0.0
2017-Jan-19 06:31N 45°13' E 012°16'0 0.0
2017-Jan-19 05:31N 45°13' E 012°16'0 0.0
2017-Jan-19 04:31N 45°13' E 012°16'0 0.0
2017-Jan-19 03:31N 45°13' E 012°16'0 0.0
2017-Jan-19 02:31N 45°13' E 012°16'0 0.0
2017-Jan-19 01:31N 45°13' E 012°16'0 0.0
2017-Jan-19 00:31N 45°13' E 012°16'0 0.0
2017-Jan-18 23:31N 45°13' E 012°16'0 0.0
2017-Jan-18 22:31N 45°13' E 012°16'0 0.0
2017-Jan-18 21:31N 45°13' E 012°16'0 0.0
2017-Jan-18 20:31N 45°13' E 012°16'0 0.0
2017-Jan-18 19:31N 45°13' E 012°16'0 0.0
2017-Jan-18 18:31N 45°13' E 012°16'0 0.0
2017-Jan-18 17:31N 45°13' E 012°16'0 0.0
2017-Jan-18 16:31N 45°13' E 012°16'0 0.0
2017-Jan-18 15:31N 45°13' E 012°16'0 0.0
2017-Jan-18 14:31N 45°13' E 012°16'0 0.0
2017-Jan-18 13:31N 45°13' E 012°16'0 0.0
2017-Jan-18 12:31N 45°13' E 012°16'0 0.0
2017-Jan-18 11:31N 45°13' E 012°16'0 0.0
2017-Jan-18 10:31N 45°13' E 012°16'0 0.0
2017-Jan-18 09:32N 45°13' E 012°16'0 0.0
2017-Jan-18 08:31N 45°13' E 012°16'0 0.0
2017-Jan-18 07:31N 45°13' E 012°16'0 0.0
2017-Jan-18 06:31N 45°13' E 012°16'0 0.0
2017-Jan-18 05:31N 45°13' E 012°16'0 0.0
2017-Jan-18 04:31N 45°13' E 012°16'0 0.0
2017-Jan-18 03:31N 45°13' E 012°16'0 0.0
2017-Jan-18 02:31N 45°13' E 012°16'0 0.0
2017-Jan-18 01:31N 45°13' E 012°16'0 0.0
2017-Jan-18 00:31N 45°13' E 012°16'0 0.0
2017-Jan-17 23:31N 45°13' E 012°16'0 0.0
2017-Jan-17 22:31N 45°13' E 012°16'0 0.0
2017-Jan-17 21:31N 45°13' E 012°16'0 0.0
2017-Jan-17 20:31N 45°13' E 012°16'0 0.0
2017-Jan-17 19:31N 45°13' E 012°16'0 0.0
2017-Jan-17 18:31N 45°13' E 012°16'0 0.0
2017-Jan-17 17:31N 45°13' E 012°16'0 0.0
2017-Jan-17 16:31N 45°13' E 012°16'0 0.0
2017-Jan-17 15:31N 45°13' E 012°16'0 0.0
2017-Jan-17 14:31N 45°13' E 012°16'0 0.0
2017-Jan-17 13:31N 45°13' E 012°16'0 0.0
2017-Jan-17 12:31N 45°13' E 012°16'0 0.0
2017-Jan-17 11:31N 45°13' E 012°16'0 0.0
2017-Jan-17 10:31N 45°13' E 012°16'0 0.0
2017-Jan-17 09:31N 45°13' E 012°16'2 3.3
2017-Jan-17 09:00N 45°12' E 012°18'2 3.7 1018.6
2017-Jan-17 08:31N 45°13' E 012°16'2 3.3
2017-Jan-17 08:00N 45°12' E 012°18'2 3.7 1017.3
2017-Jan-17 07:31N 45°13' E 012°16'2 3.3
2017-Jan-17 07:00N 45°12' E 012°18'2 3.7 1017.5
2017-Jan-17 06:31N 45°13' E 012°16'2 3.3
2017-Jan-17 06:00N 45°12' E 012°18'2 3.7 1016.8
2017-Jan-17 05:31N 45°13' E 012°16'2 3.3
2017-Jan-17 05:00N 45°12' E 012°18'2 3.7 1016.1
2017-Jan-17 04:31N 45°13' E 012°16'2 3.3
2017-Jan-17 04:00N 45°12' E 012°18'2 3.7 1015.9
2017-Jan-17 03:31N 45°13' E 012°16'2 3.3
2017-Jan-17 03:00N 45°12' E 012°18'2 3.7 1016.1
2017-Jan-17 02:31N 45°13' E 012°16'2 3.3
2017-Jan-17 02:00N 45°12' E 012°18'2 3.7 1015.9
2017-Jan-17 01:31N 45°13' E 012°16'2 3.3
2017-Jan-17 01:00N 45°12' E 012°18'2 3.7 1015.8
2017-Jan-17 00:31N 45°13' E 012°16'2 3.3
2017-Jan-17 00:00N 45°12' E 012°18'2 3.7 1015.6
2017-Jan-16 23:31N 45°13' E 012°16'2 3.3
2017-Jan-16 23:00N 45°12' E 012°18'2 3.7 1016.0
2017-Jan-16 22:31N 45°13' E 012°16'2 3.3
2017-Jan-16 22:00N 45°12' E 012°18'2 3.7 1015.8
2017-Jan-16 21:31N 45°13' E 012°16'2 3.3
2017-Jan-16 21:00N 45°12' E 012°18'2 3.3 1015.8
2017-Jan-16 20:28N 45°13' E 012°16'2 3.6
2017-Jan-16 20:00N 45°12' E 012°18'2 3.3 1015.8
2017-Jan-16 19:28N 45°13' E 012°16'2 3.6
2017-Jan-16 19:00N 45°12' E 012°18'2 3.7 1015.5
2017-Jan-16 18:31N 45°13' E 012°16'2 3.3
2017-Jan-16 18:00N 45°12' E 012°18'2 3.7 1015.3
2017-Jan-16 17:31N 45°13' E 012°16'2 3.3
2017-Jan-16 17:00N 45°12' E 012°18'2 3.7 1015.3
2017-Jan-16 16:31N 45°13' E 012°16'2 3.3
2017-Jan-16 16:00N 45°12' E 012°18'2 3.7 1015.1
2017-Jan-16 15:31N 45°13' E 012°16'2 3.3
2017-Jan-16 15:00N 45°12' E 012°18'2 3.7 1014.7
2017-Jan-16 14:31N 45°13' E 012°16'2 3.3
2017-Jan-16 14:00N 45°12' E 012°18'2 3.7 1014.5
2017-Jan-16 13:31N 45°13' E 012°16'2 3.3
2017-Jan-16 13:00N 45°12' E 012°18'2 3.7 1014.4
2017-Jan-16 12:31N 45°13' E 012°16'2 3.3
2017-Jan-16 12:00N 45°12' E 012°18'2 3.7 1014.6
2017-Jan-16 11:31N 45°13' E 012°16'2 3.3
2017-Jan-16 11:00N 45°12' E 012°18'2 3.7 1015.2
2017-Jan-16 10:31N 45°13' E 012°16'2 3.3
2017-Jan-16 10:00N 45°12' E 012°18'2 3.7 1015.7
2017-Jan-16 09:31N 45°13' E 012°16'2 3.3
2017-Jan-16 09:00N 45°12' E 012°18'2 3.7 1016.1
2017-Jan-16 08:31N 45°13' E 012°16'2 3.3
2017-Jan-16 08:00N 45°12' E 012°18'2 3.7 1016.1
2017-Jan-16 07:31N 45°13' E 012°16'2 3.3
2017-Jan-16 07:00N 45°12' E 012°18'2 3.7 1015.8
2017-Jan-16 06:31N 45°13' E 012°16'2 3.3
2017-Jan-16 06:00N 45°12' E 012°18'2 3.3 1015.6
2017-Jan-16 05:28N 45°13' E 012°16'2 3.6
2017-Jan-16 05:00N 45°12' E 012°18'2 3.7 1015.5
2017-Jan-16 04:31N 45°13' E 012°16'2 3.3
2017-Jan-16 04:00N 45°12' E 012°18'2 3.7 1015.9
2017-Jan-16 03:31N 45°13' E 012°16'2 3.3
2017-Jan-16 03:00N 45°12' E 012°18'2 3.7 1016.3
2017-Jan-16 02:31N 45°13' E 012°16'2 3.3
2017-Jan-16 02:00N 45°12' E 012°18'2 3.7 1016.6
2017-Jan-16 01:31N 45°13' E 012°16'2 3.3
2017-Jan-16 01:00N 45°12' E 012°18'2 3.7 1016.8
2017-Jan-16 00:31N 45°13' E 012°16'2 3.3
2017-Jan-16 00:00N 45°12' E 012°18'2 3.7 1017.3
2017-Jan-15 23:31N 45°13' E 012°16'2 3.3
2017-Jan-15 23:00N 45°12' E 012°18'2 3.7 1017.7
2017-Jan-15 22:31N 45°13' E 012°16'2 3.3
2017-Jan-15 22:00N 45°12' E 012°18'2 3.7 1018.0
2017-Jan-15 21:31N 45°13' E 012°16'2 3.3
2017-Jan-15 21:00N 45°12' E 012°18'2 3.7 1018.0
2017-Jan-15 20:31N 45°13' E 012°16'2 3.3
2017-Jan-15 20:00N 45°12' E 012°18'2 3.7 1018.2
2017-Jan-15 19:31N 45°13' E 012°16'2 3.3
2017-Jan-15 19:00N 45°12' E 012°18'2 3.7 1018.2
2017-Jan-15 18:31N 45°13' E 012°16'2 3.3
2017-Jan-15 18:00N 45°12' E 012°18'2 3.7 1018.2
2017-Jan-15 17:31N 45°13' E 012°16'2 3.3
2017-Jan-15 17:00N 45°12' E 012°18'2 3.7 1017.9
2017-Jan-15 16:31N 45°13' E 012°16'2 3.3
2017-Jan-15 16:00N 45°12' E 012°18'2 3.7 1017.6
2017-Jan-15 15:31N 45°13' E 012°16'2 3.3
2017-Jan-15 15:00N 45°12' E 012°18'2 3.7 1017.4
2017-Jan-15 14:31N 45°13' E 012°16'2 3.3
2017-Jan-15 14:00N 45°12' E 012°18'2 3.7 1017.1
2017-Jan-15 13:31N 45°13' E 012°16'2 3.3
2017-Jan-15 13:00N 45°12' E 012°18'2 3.7 1017.1
2017-Jan-15 12:31N 45°13' E 012°16'2 3.3
2017-Jan-15 12:00N 45°12' E 012°18'2 3.7 1017.2
2017-Jan-15 11:31N 45°13' E 012°16'2 3.3
2017-Jan-15 11:00N 45°12' E 012°18'2 3.7 1017.3
2017-Jan-15 10:31N 45°13' E 012°16'2 3.3
2017-Jan-15 10:00N 45°12' E 012°18'2 3.7 1017.2
2017-Jan-15 09:31N 45°13' E 012°16'2 3.3
2017-Jan-15 09:00N 45°12' E 012°18'2 3.7 1017.0
2017-Jan-15 08:31N 45°13' E 012°16'2 3.3
2017-Jan-15 08:00N 45°12' E 012°18'2 3.7 1016.7
2017-Jan-15 07:31N 45°13' E 012°16'2 3.3
2017-Jan-15 07:00N 45°12' E 012°18'2 3.3 1016.0
2017-Jan-15 06:28N 45°13' E 012°16'2 3.6
2017-Jan-15 06:00N 45°12' E 012°18'2 3.7 1015.3
2017-Jan-15 05:31N 45°13' E 012°16'2 3.3
2017-Jan-15 05:00N 45°12' E 012°18'2 3.7 1014.8
2017-Jan-15 04:31N 45°13' E 012°16'2 3.3
2017-Jan-15 04:00N 45°12' E 012°18'2 3.7 1014.4
2017-Jan-15 03:31N 45°13' E 012°16'2 3.3
2017-Jan-15 03:00N 45°12' E 012°18'2 3.7 1014.0
2017-Jan-15 02:31N 45°13' E 012°16'2 3.3
2017-Jan-15 02:00N 45°12' E 012°18'2 3.7 1013.8
2017-Jan-15 01:31N 45°13' E 012°16'2 3.3
2017-Jan-15 01:00N 45°12' E 012°18'2 3.7 1013.5
2017-Jan-15 00:31N 45°13' E 012°16'2 3.3
2017-Jan-15 00:00N 45°12' E 012°18'2 3.7 1013.1
2017-Jan-14 23:31N 45°13' E 012°16'2 3.3
2017-Jan-14 23:00N 45°12' E 012°18'2 3.7 1012.9
2017-Jan-14 22:31N 45°13' E 012°16'2 3.3
2017-Jan-14 22:00N 45°12' E 012°18'2 3.7 1013.0
2017-Jan-14 21:31N 45°13' E 012°16'2 3.3
2017-Jan-14 21:00N 45°12' E 012°18'2 3.7 1012.9
2017-Jan-14 20:31N 45°13' E 012°16'0 0.0
2017-Jan-14 19:31N 45°13' E 012°16'2 3.3
2017-Jan-14 19:00N 45°12' E 012°18'2 3.7 1012.0
2017-Jan-14 18:31N 45°13' E 012°16'2 3.3
2017-Jan-14 18:00N 45°12' E 012°18'2 3.7 1012.1
2017-Jan-14 17:31N 45°13' E 012°16'2 3.3
2017-Jan-14 17:00N 45°12' E 012°18'2 3.7 1011.2
2017-Jan-14 16:31N 45°13' E 012°16'2 3.3
2017-Jan-14 16:00N 45°12' E 012°18'2 3.7 1010.7
2017-Jan-14 15:31N 45°13' E 012°16'2 3.3
2017-Jan-14 15:00N 45°12' E 012°18'2 3.7 1010.4
2017-Jan-14 14:31N 45°13' E 012°16'2 3.3
2017-Jan-14 14:00N 45°12' E 012°18'2 3.7 1010.1
2017-Jan-14 13:31N 45°13' E 012°16'2 3.3
2017-Jan-14 13:00N 45°12' E 012°18'2 3.7 1009.8
2017-Jan-14 12:31N 45°13' E 012°16'2 3.3
2017-Jan-14 12:00N 45°12' E 012°18'2 3.7 1009.7
2017-Jan-14 11:31N 45°13' E 012°16'2 3.3
2017-Jan-14 11:00N 45°12' E 012°18'2 3.7 1009.4
2017-Jan-14 10:31N 45°13' E 012°16'2 3.3
2017-Jan-14 10:00N 45°12' E 012°18'2 3.7 1009.4
2017-Jan-14 09:31N 45°13' E 012°16'2 3.3
2017-Jan-14 09:00N 45°12' E 012°18'2 3.7 1009.1
2017-Jan-14 08:31N 45°13' E 012°16'2 3.3
2017-Jan-14 08:00N 45°12' E 012°18'2 3.7 1008.5
2017-Jan-14 07:31N 45°13' E 012°16'2 3.3
2017-Jan-14 07:00N 45°12' E 012°18'2 3.7 1007.7
2017-Jan-14 06:31N 45°13' E 012°16'2 3.3
2017-Jan-14 06:00N 45°12' E 012°18'2 3.7 1007.2
2017-Jan-14 05:31N 45°13' E 012°16'2 3.3
2017-Jan-14 05:00N 45°12' E 012°18'2 3.7 1006.9
2017-Jan-14 04:31N 45°13' E 012°16'2 3.3
2017-Jan-14 04:00N 45°12' E 012°18'2 3.7 1006.4
2017-Jan-14 03:31N 45°13' E 012°16'2 3.3
2017-Jan-14 03:00N 45°12' E 012°18'0 0.0 1006.4
2017-Jan-14 02:00N 45°12' E 012°18'0 0.0 1006.1
2017-Jan-14 01:00N 45°12' E 012°18'0 0.0 1005.4
2017-Jan-14 00:00N 45°12' E 012°18'2 3.7 1004.7
2017-Jan-13 23:31N 45°13' E 012°16'2 3.3
2017-Jan-13 23:00N 45°12' E 012°18'2 3.7 1004.6
2017-Jan-13 22:31N 45°13' E 012°16'2 3.3
2017-Jan-13 22:00N 45°12' E 012°18'2 3.7 1003.8
2017-Jan-13 21:31N 45°13' E 012°16'2 3.3
2017-Jan-13 21:00N 45°12' E 012°18'2 3.7 1003.1
2017-Jan-13 20:31N 45°13' E 012°16'2 3.3
2017-Jan-13 20:00N 45°12' E 012°18'2 3.7 1002.3
2017-Jan-13 19:31N 45°13' E 012°16'2 3.3
2017-Jan-13 19:00N 45°12' E 012°18'2 3.3 1001.2
2017-Jan-13 18:28N 45°13' E 012°16'2 3.6
2017-Jan-13 18:00N 45°12' E 012°18'2 3.3 999.5
2017-Jan-13 17:28N 45°13' E 012°16'2 3.6
2017-Jan-13 17:00N 45°12' E 012°18'2 3.7 998.2
2017-Jan-13 16:31N 45°13' E 012°16'2 3.3
2017-Jan-13 16:00N 45°12' E 012°18'2 3.7 997.9
2017-Jan-13 15:31N 45°13' E 012°16'2 3.3
2017-Jan-13 15:00N 45°12' E 012°18'2 3.7 997.3
2017-Jan-13 14:31N 45°13' E 012°16'2 3.3
2017-Jan-13 14:00N 45°12' E 012°18'2 3.7 997.6
2017-Jan-13 13:31N 45°13' E 012°16'2 3.3
2017-Jan-13 13:00N 45°12' E 012°18'2 3.7 997.4
2017-Jan-13 12:31N 45°13' E 012°16'2 3.3
2017-Jan-13 12:00N 45°12' E 012°18'2 3.7 998.3
2017-Jan-13 11:31N 45°13' E 012°16'2 3.3
2017-Jan-13 11:00N 45°12' E 012°18'2 3.7 998.4
2017-Jan-13 10:31N 45°13' E 012°16'2 3.3
2017-Jan-13 10:00N 45°12' E 012°18'2 3.7 999.4
2017-Jan-13 09:31N 45°13' E 012°16'2 3.3
2017-Jan-13 09:00N 45°12' E 012°18'2 3.7 999.6
2017-Jan-13 08:31N 45°13' E 012°16'2 3.3
2017-Jan-13 08:00N 45°12' E 012°18'2 3.7 1000.1
2017-Jan-13 07:31N 45°13' E 012°16'2 3.3
2017-Jan-13 07:00N 45°12' E 012°18'2 3.7 1000.2
2017-Jan-13 06:31N 45°13' E 012°16'2 3.3
2017-Jan-13 06:00N 45°12' E 012°18'2 3.7 1000.7
2017-Jan-13 05:31N 45°13' E 012°16'2 3.3
2017-Jan-13 05:00N 45°12' E 012°18'2 3.7 1002.1
2017-Jan-13 04:31N 45°13' E 012°16'0 0.0
2017-Jan-13 03:31N 45°13' E 012°16'2 3.3
2017-Jan-13 03:00N 45°12' E 012°18'2 3.7 1005.3
2017-Jan-13 02:31N 45°13' E 012°16'2 3.3
2017-Jan-13 02:00N 45°12' E 012°18'2 3.7 1007.5
2017-Jan-13 01:31N 45°13' E 012°16'2 3.3
2017-Jan-13 01:00N 45°12' E 012°18'2 3.7 1009.2
2017-Jan-13 00:31N 45°13' E 012°16'2 3.3
2017-Jan-13 00:00N 45°12' E 012°18'2 3.7 1010.6
2017-Jan-12 23:31N 45°13' E 012°16'0 0.0
2017-Jan-12 22:31N 45°13' E 012°16'2 3.3
2017-Jan-12 22:00N 45°12' E 012°18'2 3.7 1013.8
2017-Jan-12 21:31N 45°13' E 012°16'2 3.3
2017-Jan-12 21:00N 45°12' E 012°18'2 3.7 1015.1
2017-Jan-12 20:31N 45°13' E 012°16'2 3.3
2017-Jan-12 20:00N 45°12' E 012°18'2 3.7 1016.4
2017-Jan-12 19:31N 45°13' E 012°16'2 3.3
2017-Jan-12 19:00N 45°12' E 012°18'2 3.7 1017.8
2017-Jan-12 18:31N 45°13' E 012°16'2 3.3
2017-Jan-12 18:00N 45°12' E 012°18'2 3.7 1018.5
2017-Jan-12 17:31N 45°13' E 012°16'2 3.3
2017-Jan-12 17:00N 45°12' E 012°18'2 3.3 1019.5
2017-Jan-12 16:28N 45°13' E 012°16'2 3.6
2017-Jan-12 16:00N 45°12' E 012°18'2 3.7 1019.8
2017-Jan-12 15:31N 45°13' E 012°16'2 3.3
2017-Jan-12 15:00N 45°12' E 012°18'2 3.7 1019.9
2017-Jan-12 14:31N 45°13' E 012°16'2 3.3
2017-Jan-12 14:00N 45°12' E 012°18'2 3.7 1020.7
2017-Jan-12 13:31N 45°13' E 012°16'2 3.3
2017-Jan-12 13:00N 45°12' E 012°18'2 3.7 1020.6
2017-Jan-12 12:31N 45°13' E 012°16'2 3.3
2017-Jan-12 12:00N 45°12' E 012°18'2 3.7 1021.0
2017-Jan-12 11:31N 45°13' E 012°16'2 3.3
2017-Jan-12 11:00N 45°12' E 012°18'2 3.7 1021.6
2017-Jan-12 10:31N 45°13' E 012°16'2 3.3
2017-Jan-12 10:00N 45°12' E 012°18'2 3.7 1021.8
2017-Jan-12 09:31N 45°13' E 012°16'2 3.3
2017-Jan-12 09:00N 45°12' E 012°18'2 3.7 1021.6
2017-Jan-12 08:31N 45°13' E 012°16'2 3.3
2017-Jan-12 08:00N 45°12' E 012°18'2 3.7 1020.8
2017-Jan-12 07:31N 45°13' E 012°16'2 3.3
2017-Jan-12 07:00N 45°12' E 012°18'2 3.7 1020.0
2017-Jan-12 06:31N 45°13' E 012°16'2 3.3
2017-Jan-12 06:00N 45°12' E 012°18'2 3.7 1019.4
2017-Jan-12 05:31N 45°13' E 012°16'2 3.3
2017-Jan-12 05:00N 45°12' E 012°18'2 3.7 1019.0
2017-Jan-12 04:31N 45°13' E 012°16'2 3.3
2017-Jan-12 04:00N 45°12' E 012°18'2 3.7 1018.7
2017-Jan-12 03:31N 45°13' E 012°16'2 3.3
2017-Jan-12 03:00N 45°12' E 012°18'2 3.7 1018.7
2017-Jan-12 02:31N 45°13' E 012°16'2 3.3
2017-Jan-12 02:00N 45°12' E 012°18'2 3.3 1018.8
2017-Jan-12 01:28N 45°13' E 012°16'2 3.6
2017-Jan-12 01:00N 45°12' E 012°18'2 3.3 1018.7
2017-Jan-12 00:28N 45°13' E 012°16'2 3.6
2017-Jan-12 00:00N 45°12' E 012°18'2 3.7 1018.9
2017-Jan-11 23:31N 45°13' E 012°16'2 3.3
2017-Jan-11 23:00N 45°12' E 012°18'2 3.7 1019.2
2017-Jan-11 22:31N 45°13' E 012°16'2 3.3
2017-Jan-11 22:00N 45°12' E 012°18'2 3.7 1019.0
2017-Jan-11 21:31N 45°13' E 012°16'2 3.3
2017-Jan-11 21:00N 45°12' E 012°18'2 3.7 1018.8
2017-Jan-11 20:31N 45°13' E 012°16'2 3.3
2017-Jan-11 20:00N 45°12' E 012°18'2 3.7 1019.2
2017-Jan-11 19:31N 45°13' E 012°16'2 3.3
2017-Jan-11 19:00N 45°12' E 012°18'2 3.7 1019.6
2017-Jan-11 18:31N 45°13' E 012°16'2 3.3
2017-Jan-11 18:00N 45°12' E 012°18'2 3.7 1019.1
2017-Jan-11 17:31N 45°13' E 012°16'2 3.3
2017-Jan-11 17:00N 45°12' E 012°18'2 3.3 1020.1
2017-Jan-11 16:28N 45°13' E 012°16'2 3.6
2017-Jan-11 16:00N 45°12' E 012°18'2 3.7 1019.8
2017-Jan-11 15:31N 45°13' E 012°16'2 3.3
2017-Jan-11 15:00N 45°12' E 012°18'2 3.7 1019.5
2017-Jan-11 14:31N 45°13' E 012°16'2 3.3
2017-Jan-11 14:00N 45°12' E 012°18'2 3.7 1020.9
2017-Jan-11 13:31N 45°13' E 012°16'2 3.3
2017-Jan-11 13:00N 45°12' E 012°18'0 0.0 1021.4
2017-Jan-11 12:00N 45°12' E 012°18'2 3.7 1022.0
2017-Jan-11 11:31N 45°13' E 012°16'2 3.3
2017-Jan-11 11:00N 45°12' E 012°18'2 3.7 1022.3
2017-Jan-11 10:31N 45°13' E 012°16'2 3.3
2017-Jan-11 10:00N 45°12' E 012°18'2 3.7 1022.8
2017-Jan-11 09:31N 45°13' E 012°16'2 3.3
2017-Jan-11 09:00N 45°12' E 012°18'2 3.7 1022.5
2017-Jan-11 08:31N 45°13' E 012°16'2 3.3
2017-Jan-11 08:00N 45°12' E 012°18'2 3.7 1022.0
2017-Jan-11 07:31N 45°13' E 012°16'2 3.3
2017-Jan-11 07:00N 45°12' E 012°18'2 3.7 1021.4
2017-Jan-11 06:31N 45°13' E 012°16'2 3.3
2017-Jan-11 06:00N 45°12' E 012°18'2 3.7 1020.4
2017-Jan-11 05:31N 45°13' E 012°16'2 3.3
2017-Jan-11 05:00N 45°12' E 012°18'2 3.7 1019.9
2017-Jan-11 04:31N 45°13' E 012°16'2 3.3
2017-Jan-11 04:00N 45°12' E 012°18'2 3.7 1019.4
2017-Jan-11 03:31N 45°13' E 012°16'2 3.3
2017-Jan-11 03:00N 45°12' E 012°18'2 3.7 1019.1
2017-Jan-11 02:31N 45°13' E 012°16'2 3.3
2017-Jan-11 02:00N 45°12' E 012°18'2 3.7 1019.0
2017-Jan-11 01:31N 45°13' E 012°16'2 3.3
2017-Jan-11 01:00N 45°12' E 012°18'2 3.7 1018.7
2017-Jan-11 00:31N 45°13' E 012°16'2 3.3
2017-Jan-11 00:00N 45°12' E 012°18'2 3.7 1018.5
2017-Jan-10 23:31N 45°13' E 012°16'2 3.3
2017-Jan-10 23:00N 45°12' E 012°18'2 3.7 1018.2
2017-Jan-10 22:31N 45°13' E 012°16'2 3.3
2017-Jan-10 22:00N 45°12' E 012°18'2 3.7 1017.8
2017-Jan-10 21:31N 45°13' E 012°16'2 3.3
2017-Jan-10 21:00N 45°12' E 012°18'2 3.3 1017.3
2017-Jan-10 20:28N 45°13' E 012°16'2 3.6
2017-Jan-10 20:00N 45°12' E 012°18'2 3.7 1016.8
2017-Jan-10 19:31N 45°13' E 012°16'2 3.3
2017-Jan-10 19:00N 45°12' E 012°18'2 4.0 1015.8
2017-Jan-10 18:33N 45°13' E 012°16'2 3.1
2017-Jan-10 18:00N 45°12' E 012°18'511.3 1015.5
2017-Jan-10 17:33N 45°14' E 012°24'1010.3
2017-Jan-10 16:34N 45°13' E 012°39'916.4
2017-Jan-10 16:00N 45°06' E 012°48'4 9.7 1014.8
2017-Jan-10 15:34N 45°03' E 012°52'915.6
2017-Jan-10 15:00N 44°54' E 012°54'614.2 1014.1
2017-Jan-10 14:33N 44°49' E 012°59'915.1
2017-Jan-10 14:00N 44°42' E 013°06'715.0 1014.0
2017-Jan-10 13:30N 44°35' E 013°06'611.9
2017-Jan-10 13:00N 44°30' E 013°12'   1013.9
Track history (hours):
 
Tides and Currents Weather Stations Pressure Air Temp Water Temp Dewpoint Dewpoint Depression Visibility Wind Speed Wind Dir Waves Ship Positions

Traveller

Last reported at 2017-Jan-20 13:00 UTC. Time now 2017-Jan-20 14:03 UTC.
Position N 40°36' E 018°18'.

Length 101 m; beam 20 m.

Type: Ship. MMSI: 246111000.

Barometer 1027.8 mb

Date/timePositionNaut miles runAvg speedWind from/ knotsBaromVisibWave heightAir tempDewpointWater temp
2017-Jan-20 13:00N 40°36' E 018°18'1515.1 1027.8
2017-Jan-20 12:00N 40°48' E 018°06'1515.0 1028.0
2017-Jan-20 11:00N 41°00' E 017°54'1514.8 1028.4
2017-Jan-20 10:00N 41°06' E 017°36'1515.0 1029.1
2017-Jan-20 09:00N 41°18' E 017°24'1515.0 1029.3
2017-Jan-20 08:00N 41°30' E 017°12'1515.0 1029.0
2017-Jan-20 07:00N 41°42' E 017°00'1110.8 1028.9
2017-Jan-20 06:00N 41°48' E 016°48'1818.0 1028.3
2017-Jan-20 05:00N 42°00' E 016°30'1110.7 1028.1
2017-Jan-20 04:00N 42°06' E 016°18'1514.9 1028.1
2017-Jan-20 03:00N 42°18' E 016°06'1817.9 1028.2
2017-Jan-20 02:00N 42°30' E 015°48'1514.9 1028.6
2017-Jan-20 01:00N 42°42' E 015°36'1514.5 1028.4
2017-Jan-20 00:00N 42°48' E 015°18'1514.9 1028.6
2017-Jan-19 23:00N 43°00' E 015°06'1514.9 1028.9
2017-Jan-19 22:00N 43°12' E 014°54'1414.4 1029.1
2017-Jan-19 21:00N 43°18' E 014°36'1514.8 1029.2
2017-Jan-19 20:00N 43°30' E 014°24'1514.8 1029.0
2017-Jan-19 19:00N 43°42' E 014°12'1110.5 1028.4
2017-Jan-19 18:00N 43°48' E 014°00'1414.3 1028.2
2017-Jan-19 17:00N 43°54' E 013°42'1817.7 1027.9
2017-Jan-19 16:00N 44°06' E 013°24'1913.0 1028.1
2017-Jan-19 14:32N 44°21' E 013°08'1414.0
2017-Jan-19 13:32N 44°34' E 013°02'1010.2
2017-Jan-19 12:32N 44°44' E 012°58'1110.9
2017-Jan-19 11:33N 44°54' E 012°51'1414.0
2017-Jan-19 10:34N 45°06' E 012°42'9 9.1
2017-Jan-19 09:34N 45°11' E 012°32'8 8.3
2017-Jan-19 08:33N 45°14' E 012°21'4 3.6
2017-Jan-19 07:31N 45°13' E 012°16'0 0.0
2017-Jan-19 06:31N 45°13' E 012°16'0 0.0
2017-Jan-19 05:31N 45°13' E 012°16'0 0.0
2017-Jan-19 04:31N 45°13' E 012°16'0 0.0
2017-Jan-19 03:31N 45°13' E 012°16'0 0.0
2017-Jan-19 02:31N 45°13' E 012°16'0 0.0
2017-Jan-19 01:31N 45°13' E 012°16'0 0.0
2017-Jan-19 00:31N 45°13' E 012°16'0 0.0
2017-Jan-18 23:31N 45°13' E 012°16'0 0.0
2017-Jan-18 22:31N 45°13' E 012°16'0 0.0
2017-Jan-18 21:31N 45°13' E 012°16'0 0.0
2017-Jan-18 20:31N 45°13' E 012°16'0 0.0
2017-Jan-18 19:31N 45°13' E 012°16'0 0.0
2017-Jan-18 18:31N 45°13' E 012°16'0 0.0
2017-Jan-18 17:31N 45°13' E 012°16'0 0.0
2017-Jan-18 16:31N 45°13' E 012°16'0 0.0
2017-Jan-18 15:31N 45°13' E 012°16'0 0.0
2017-Jan-18 14:31N 45°13' E 012°16'0 0.0
2017-Jan-18 13:31N 45°13' E 012°16'0 0.0
2017-Jan-18 12:31N 45°13' E 012°16'0 0.0
2017-Jan-18 11:31N 45°13' E 012°16'0 0.0
2017-Jan-18 10:31N 45°13' E 012°16'0 0.0
2017-Jan-18 09:32N 45°13' E 012°16'0 0.0
2017-Jan-18 08:31N 45°13' E 012°16'0 0.0
2017-Jan-18 07:31N 45°13' E 012°16'0 0.0
2017-Jan-18 06:31N 45°13' E 012°16'0 0.0
2017-Jan-18 05:31N 45°13' E 012°16'0 0.0
2017-Jan-18 04:31N 45°13' E 012°16'0 0.0
2017-Jan-18 03:31N 45°13' E 012°16'0 0.0
2017-Jan-18 02:31N 45°13' E 012°16'0 0.0
2017-Jan-18 01:31N 45°13' E 012°16'0 0.0
2017-Jan-18 00:31N 45°13' E 012°16'0 0.0
2017-Jan-17 23:31N 45°13' E 012°16'0 0.0
2017-Jan-17 22:31N 45°13' E 012°16'0 0.0
2017-Jan-17 21:31N 45°13' E 012°16'0 0.0
2017-Jan-17 20:31N 45°13' E 012°16'0 0.0
2017-Jan-17 19:31N 45°13' E 012°16'0 0.0
2017-Jan-17 18:31N 45°13' E 012°16'0 0.0
2017-Jan-17 17:31N 45°13' E 012°16'0 0.0
2017-Jan-17 16:31N 45°13' E 012°16'0 0.0
2017-Jan-17 15:31N 45°13' E 012°16'0 0.0
2017-Jan-17 14:31N 45°13' E 012°16'0 0.0
2017-Jan-17 13:31N 45°13' E 012°16'0 0.0
2017-Jan-17 12:31N 45°13' E 012°16'0 0.0
2017-Jan-17 11:31N 45°13' E 012°16'0 0.0
2017-Jan-17 10:31N 45°13' E 012°16'0 0.0
2017-Jan-17 09:31N 45°13' E 012°16'2 3.3
2017-Jan-17 09:00N 45°12' E 012°18'2 3.7 1018.6
2017-Jan-17 08:31N 45°13' E 012°16'2 3.3
2017-Jan-17 08:00N 45°12' E 012°18'2 3.7 1017.3
2017-Jan-17 07:31N 45°13' E 012°16'2 3.3
2017-Jan-17 07:00N 45°12' E 012°18'2 3.7 1017.5
2017-Jan-17 06:31N 45°13' E 012°16'2 3.3
2017-Jan-17 06:00N 45°12' E 012°18'2 3.7 1016.8
2017-Jan-17 05:31N 45°13' E 012°16'2 3.3
2017-Jan-17 05:00N 45°12' E 012°18'2 3.7 1016.1
2017-Jan-17 04:31N 45°13' E 012°16'2 3.3
2017-Jan-17 04:00N 45°12' E 012°18'2 3.7 1015.9
2017-Jan-17 03:31N 45°13' E 012°16'2 3.3
2017-Jan-17 03:00N 45°12' E 012°18'2 3.7 1016.1
2017-Jan-17 02:31N 45°13' E 012°16'2 3.3
2017-Jan-17 02:00N 45°12' E 012°18'2 3.7 1015.9
2017-Jan-17 01:31N 45°13' E 012°16'2 3.3
2017-Jan-17 01:00N 45°12' E 012°18'2 3.7 1015.8
2017-Jan-17 00:31N 45°13' E 012°16'2 3.3
2017-Jan-17 00:00N 45°12' E 012°18'2 3.7 1015.6
2017-Jan-16 23:31N 45°13' E 012°16'2 3.3
2017-Jan-16 23:00N 45°12' E 012°18'2 3.7 1016.0
2017-Jan-16 22:31N 45°13' E 012°16'2 3.3
2017-Jan-16 22:00N 45°12' E 012°18'2 3.7 1015.8
2017-Jan-16 21:31N 45°13' E 012°16'2 3.3
2017-Jan-16 21:00N 45°12' E 012°18'2 3.3 1015.8
2017-Jan-16 20:28N 45°13' E 012°16'2 3.6
2017-Jan-16 20:00N 45°12' E 012°18'2 3.3 1015.8
2017-Jan-16 19:28N 45°13' E 012°16'2 3.6
2017-Jan-16 19:00N 45°12' E 012°18'2 3.7 1015.5
2017-Jan-16 18:31N 45°13' E 012°16'2 3.3
2017-Jan-16 18:00N 45°12' E 012°18'2 3.7 1015.3
2017-Jan-16 17:31N 45°13' E 012°16'2 3.3
2017-Jan-16 17:00N 45°12' E 012°18'2 3.7 1015.3
2017-Jan-16 16:31N 45°13' E 012°16'2 3.3
2017-Jan-16 16:00N 45°12' E 012°18'2 3.7 1015.1
2017-Jan-16 15:31N 45°13' E 012°16'2 3.3
2017-Jan-16 15:00N 45°12' E 012°18'2 3.7 1014.7
2017-Jan-16 14:31N 45°13' E 012°16'2 3.3
2017-Jan-16 14:00N 45°12' E 012°18'2 3.7 1014.5
2017-Jan-16 13:31N 45°13' E 012°16'2 3.3
2017-Jan-16 13:00N 45°12' E 012°18'2 3.7 1014.4
2017-Jan-16 12:31N 45°13' E 012°16'2 3.3
2017-Jan-16 12:00N 45°12' E 012°18'2 3.7 1014.6
2017-Jan-16 11:31N 45°13' E 012°16'2 3.3
2017-Jan-16 11:00N 45°12' E 012°18'2 3.7 1015.2
2017-Jan-16 10:31N 45°13' E 012°16'2 3.3
2017-Jan-16 10:00N 45°12' E 012°18'2 3.7 1015.7
2017-Jan-16 09:31N 45°13' E 012°16'2 3.3
2017-Jan-16 09:00N 45°12' E 012°18'2 3.7 1016.1
2017-Jan-16 08:31N 45°13' E 012°16'2 3.3
2017-Jan-16 08:00N 45°12' E 012°18'2 3.7 1016.1
2017-Jan-16 07:31N 45°13' E 012°16'2 3.3
2017-Jan-16 07:00N 45°12' E 012°18'2 3.7 1015.8
2017-Jan-16 06:31N 45°13' E 012°16'2 3.3
2017-Jan-16 06:00N 45°12' E 012°18'2 3.3 1015.6
2017-Jan-16 05:28N 45°13' E 012°16'2 3.6
2017-Jan-16 05:00N 45°12' E 012°18'2 3.7 1015.5
2017-Jan-16 04:31N 45°13' E 012°16'2 3.3
2017-Jan-16 04:00N 45°12' E 012°18'2 3.7 1015.9
2017-Jan-16 03:31N 45°13' E 012°16'2 3.3
2017-Jan-16 03:00N 45°12' E 012°18'2 3.7 1016.3
2017-Jan-16 02:31N 45°13' E 012°16'2 3.3
2017-Jan-16 02:00N 45°12' E 012°18'2 3.7 1016.6
2017-Jan-16 01:31N 45°13' E 012°16'2 3.3
2017-Jan-16 01:00N 45°12' E 012°18'2 3.7 1016.8
2017-Jan-16 00:31N 45°13' E 012°16'2 3.3
2017-Jan-16 00:00N 45°12' E 012°18'2 3.7 1017.3
2017-Jan-15 23:31N 45°13' E 012°16'2 3.3
2017-Jan-15 23:00N 45°12' E 012°18'2 3.7 1017.7
2017-Jan-15 22:31N 45°13' E 012°16'2 3.3
2017-Jan-15 22:00N 45°12' E 012°18'2 3.7 1018.0
2017-Jan-15 21:31N 45°13' E 012°16'2 3.3
2017-Jan-15 21:00N 45°12' E 012°18'2 3.7 1018.0
2017-Jan-15 20:31N 45°13' E 012°16'2 3.3
2017-Jan-15 20:00N 45°12' E 012°18'2 3.7 1018.2
2017-Jan-15 19:31N 45°13' E 012°16'2 3.3
2017-Jan-15 19:00N 45°12' E 012°18'2 3.7 1018.2
2017-Jan-15 18:31N 45°13' E 012°16'2 3.3
2017-Jan-15 18:00N 45°12' E 012°18'2 3.7 1018.2
2017-Jan-15 17:31N 45°13' E 012°16'2 3.3
2017-Jan-15 17:00N 45°12' E 012°18'2 3.7 1017.9
2017-Jan-15 16:31N 45°13' E 012°16'2 3.3
2017-Jan-15 16:00N 45°12' E 012°18'2 3.7 1017.6
2017-Jan-15 15:31N 45°13' E 012°16'2 3.3
2017-Jan-15 15:00N 45°12' E 012°18'2 3.7 1017.4
2017-Jan-15 14:31N 45°13' E 012°16'2 3.3
2017-Jan-15 14:00N 45°12' E 012°18'2 3.7 1017.1
2017-Jan-15 13:31N 45°13' E 012°16'2 3.3
2017-Jan-15 13:00N 45°12' E 012°18'2 3.7 1017.1
2017-Jan-15 12:31N 45°13' E 012°16'2 3.3
2017-Jan-15 12:00N 45°12' E 012°18'2 3.7 1017.2
2017-Jan-15 11:31N 45°13' E 012°16'2 3.3
2017-Jan-15 11:00N 45°12' E 012°18'2 3.7 1017.3
2017-Jan-15 10:31N 45°13' E 012°16'2 3.3
2017-Jan-15 10:00N 45°12' E 012°18'2 3.7 1017.2
2017-Jan-15 09:31N 45°13' E 012°16'2 3.3
2017-Jan-15 09:00N 45°12' E 012°18'2 3.7 1017.0
2017-Jan-15 08:31N 45°13' E 012°16'2 3.3
2017-Jan-15 08:00N 45°12' E 012°18'2 3.7 1016.7
2017-Jan-15 07:31N 45°13' E 012°16'2 3.3
2017-Jan-15 07:00N 45°12' E 012°18'2 3.3 1016.0
2017-Jan-15 06:28N 45°13' E 012°16'2 3.6
2017-Jan-15 06:00N 45°12' E 012°18'2 3.7 1015.3
2017-Jan-15 05:31N 45°13' E 012°16'2 3.3
2017-Jan-15 05:00N 45°12' E 012°18'2 3.7 1014.8
2017-Jan-15 04:31N 45°13' E 012°16'2 3.3
2017-Jan-15 04:00N 45°12' E 012°18'2 3.7 1014.4
2017-Jan-15 03:31N 45°13' E 012°16'2 3.3
2017-Jan-15 03:00N 45°12' E 012°18'2 3.7 1014.0
2017-Jan-15 02:31N 45°13' E 012°16'2 3.3
2017-Jan-15 02:00N 45°12' E 012°18'2 3.7 1013.8
2017-Jan-15 01:31N 45°13' E 012°16'2 3.3
2017-Jan-15 01:00N 45°12' E 012°18'2 3.7 1013.5
2017-Jan-15 00:31N 45°13' E 012°16'2 3.3
2017-Jan-15 00:00N 45°12' E 012°18'2 3.7 1013.1
2017-Jan-14 23:31N 45°13' E 012°16'2 3.3
2017-Jan-14 23:00N 45°12' E 012°18'2 3.7 1012.9
2017-Jan-14 22:31N 45°13' E 012°16'2 3.3
2017-Jan-14 22:00N 45°12' E 012°18'2 3.7 1013.0
2017-Jan-14 21:31N 45°13' E 012°16'2 3.3
2017-Jan-14 21:00N 45°12' E 012°18'2 3.7 1012.9
2017-Jan-14 20:31N 45°13' E 012°16'0 0.0
2017-Jan-14 19:31N 45°13' E 012°16'2 3.3
2017-Jan-14 19:00N 45°12' E 012°18'2 3.7 1012.0
2017-Jan-14 18:31N 45°13' E 012°16'2 3.3
2017-Jan-14 18:00N 45°12' E 012°18'2 3.7 1012.1
2017-Jan-14 17:31N 45°13' E 012°16'2 3.3
2017-Jan-14 17:00N 45°12' E 012°18'2 3.7 1011.2
2017-Jan-14 16:31N 45°13' E 012°16'2 3.3
2017-Jan-14 16:00N 45°12' E 012°18'2 3.7 1010.7
2017-Jan-14 15:31N 45°13' E 012°16'2 3.3
2017-Jan-14 15:00N 45°12' E 012°18'2 3.7 1010.4
2017-Jan-14 14:31N 45°13' E 012°16'2 3.3
2017-Jan-14 14:00N 45°12' E 012°18'2 3.7 1010.1
2017-Jan-14 13:31N 45°13' E 012°16'2 3.3
2017-Jan-14 13:00N 45°12' E 012°18'2 3.7 1009.8
2017-Jan-14 12:31N 45°13' E 012°16'2 3.3
2017-Jan-14 12:00N 45°12' E 012°18'2 3.7 1009.7
2017-Jan-14 11:31N 45°13' E 012°16'2 3.3
2017-Jan-14 11:00N 45°12' E 012°18'2 3.7 1009.4
2017-Jan-14 10:31N 45°13' E 012°16'2 3.3
2017-Jan-14 10:00N 45°12' E 012°18'2 3.7 1009.4
2017-Jan-14 09:31N 45°13' E 012°16'2 3.3
2017-Jan-14 09:00N 45°12' E 012°18'2 3.7 1009.1
2017-Jan-14 08:31N 45°13' E 012°16'2 3.3
2017-Jan-14 08:00N 45°12' E 012°18'2 3.7 1008.5
2017-Jan-14 07:31N 45°13' E 012°16'2 3.3
2017-Jan-14 07:00N 45°12' E 012°18'2 3.7 1007.7
2017-Jan-14 06:31N 45°13' E 012°16'2 3.3
2017-Jan-14 06:00N 45°12' E 012°18'2 3.7 1007.2
2017-Jan-14 05:31N 45°13' E 012°16'2 3.3
2017-Jan-14 05:00N 45°12' E 012°18'2 3.7 1006.9
2017-Jan-14 04:31N 45°13' E 012°16'2 3.3
2017-Jan-14 04:00N 45°12' E 012°18'2 3.7 1006.4
2017-Jan-14 03:31N 45°13' E 012°16'2 3.3
2017-Jan-14 03:00N 45°12' E 012°18'0 0.0 1006.4
2017-Jan-14 02:00N 45°12' E 012°18'0 0.0 1006.1
2017-Jan-14 01:00N 45°12' E 012°18'0 0.0 1005.4
2017-Jan-14 00:00N 45°12' E 012°18'2 3.7 1004.7
2017-Jan-13 23:31N 45°13' E 012°16'2 3.3
2017-Jan-13 23:00N 45°12' E 012°18'2 3.7 1004.6
2017-Jan-13 22:31N 45°13' E 012°16'2 3.3
2017-Jan-13 22:00N 45°12' E 012°18'2 3.7 1003.8
2017-Jan-13 21:31N 45°13' E 012°16'2 3.3
2017-Jan-13 21:00N 45°12' E 012°18'2 3.7 1003.1
2017-Jan-13 20:31N 45°13' E 012°16'2 3.3
2017-Jan-13 20:00N 45°12' E 012°18'2 3.7 1002.3
2017-Jan-13 19:31N 45°13' E 012°16'2 3.3
2017-Jan-13 19:00N 45°12' E 012°18'2 3.3 1001.2
2017-Jan-13 18:28N 45°13' E 012°16'2 3.6
2017-Jan-13 18:00N 45°12' E 012°18'2 3.3 999.5
2017-Jan-13 17:28N 45°13' E 012°16'2 3.6
2017-Jan-13 17:00N 45°12' E 012°18'2 3.7 998.2
2017-Jan-13 16:31N 45°13' E 012°16'2 3.3
2017-Jan-13 16:00N 45°12' E 012°18'2 3.7 997.9
2017-Jan-13 15:31N 45°13' E 012°16'2 3.3
2017-Jan-13 15:00N 45°12' E 012°18'2 3.7 997.3
2017-Jan-13 14:31N 45°13' E 012°16'2 3.3
2017-Jan-13 14:00N 45°12' E 012°18'2 3.7 997.6
2017-Jan-13 13:31N 45°13' E 012°16'2 3.3
2017-Jan-13 13:00N 45°12' E 012°18'2 3.7 997.4
2017-Jan-13 12:31N 45°13' E 012°16'2 3.3
2017-Jan-13 12:00N 45°12' E 012°18'2 3.7 998.3
2017-Jan-13 11:31N 45°13' E 012°16'2 3.3
2017-Jan-13 11:00N 45°12' E 012°18'2 3.7 998.4
2017-Jan-13 10:31N 45°13' E 012°16'2 3.3
2017-Jan-13 10:00N 45°12' E 012°18'2 3.7 999.4
2017-Jan-13 09:31N 45°13' E 012°16'2 3.3
2017-Jan-13 09:00N 45°12' E 012°18'2 3.7 999.6
2017-Jan-13 08:31N 45°13' E 012°16'2 3.3
2017-Jan-13 08:00N 45°12' E 012°18'2 3.7 1000.1
2017-Jan-13 07:31N 45°13' E 012°16'2 3.3
2017-Jan-13 07:00N 45°12' E 012°18'2 3.7 1000.2
2017-Jan-13 06:31N 45°13' E 012°16'2 3.3
2017-Jan-13 06:00N 45°12' E 012°18'2 3.7 1000.7
2017-Jan-13 05:31N 45°13' E 012°16'2 3.3
2017-Jan-13 05:00N 45°12' E 012°18'2 3.7 1002.1
2017-Jan-13 04:31N 45°13' E 012°16'0 0.0
2017-Jan-13 03:31N 45°13' E 012°16'2 3.3
2017-Jan-13 03:00N 45°12' E 012°18'2 3.7 1005.3
2017-Jan-13 02:31N 45°13' E 012°16'2 3.3
2017-Jan-13 02:00N 45°12' E 012°18'2 3.7 1007.5
2017-Jan-13 01:31N 45°13' E 012°16'2 3.3
2017-Jan-13 01:00N 45°12' E 012°18'2 3.7 1009.2
2017-Jan-13 00:31N 45°13' E 012°16'2 3.3
2017-Jan-13 00:00N 45°12' E 012°18'2 3.7 1010.6
2017-Jan-12 23:31N 45°13' E 012°16'0 0.0
2017-Jan-12 22:31N 45°13' E 012°16'2 3.3
2017-Jan-12 22:00N 45°12' E 012°18'2 3.7 1013.8
2017-Jan-12 21:31N 45°13' E 012°16'2 3.3
2017-Jan-12 21:00N 45°12' E 012°18'2 3.7 1015.1
2017-Jan-12 20:31N 45°13' E 012°16'2 3.3
2017-Jan-12 20:00N 45°12' E 012°18'2 3.7 1016.4
2017-Jan-12 19:31N 45°13' E 012°16'2 3.3
2017-Jan-12 19:00N 45°12' E 012°18'2 3.7 1017.8
2017-Jan-12 18:31N 45°13' E 012°16'2 3.3
2017-Jan-12 18:00N 45°12' E 012°18'2 3.7 1018.5
2017-Jan-12 17:31N 45°13' E 012°16'2 3.3
2017-Jan-12 17:00N 45°12' E 012°18'2 3.3 1019.5
2017-Jan-12 16:28N 45°13' E 012°16'2 3.6
2017-Jan-12 16:00N 45°12' E 012°18'2 3.7 1019.8
2017-Jan-12 15:31N 45°13' E 012°16'2 3.3
2017-Jan-12 15:00N 45°12' E 012°18'2 3.7 1019.9
2017-Jan-12 14:31N 45°13' E 012°16'2 3.3
2017-Jan-12 14:00N 45°12' E 012°18'2 3.7 1020.7
2017-Jan-12 13:31N 45°13' E 012°16'2 3.3
2017-Jan-12 13:00N 45°12' E 012°18'2 3.7 1020.6
2017-Jan-12 12:31N 45°13' E 012°16'2 3.3
2017-Jan-12 12:00N 45°12' E 012°18'2 3.7 1021.0
2017-Jan-12 11:31N 45°13' E 012°16'2 3.3
2017-Jan-12 11:00N 45°12' E 012°18'2 3.7 1021.6
2017-Jan-12 10:31N 45°13' E 012°16'2 3.3
2017-Jan-12 10:00N 45°12' E 012°18'2 3.7 1021.8
2017-Jan-12 09:31N 45°13' E 012°16'2 3.3
2017-Jan-12 09:00N 45°12' E 012°18'2 3.7 1021.6
2017-Jan-12 08:31N 45°13' E 012°16'2 3.3
2017-Jan-12 08:00N 45°12' E 012°18'2 3.7 1020.8
2017-Jan-12 07:31N 45°13' E 012°16'2 3.3
2017-Jan-12 07:00N 45°12' E 012°18'2 3.7 1020.0
2017-Jan-12 06:31N 45°13' E 012°16'2 3.3
2017-Jan-12 06:00N 45°12' E 012°18'2 3.7 1019.4
2017-Jan-12 05:31N 45°13' E 012°16'2 3.3
2017-Jan-12 05:00N 45°12' E 012°18'2 3.7 1019.0
2017-Jan-12 04:31N 45°13' E 012°16'2 3.3
2017-Jan-12 04:00N 45°12' E 012°18'2 3.7 1018.7
2017-Jan-12 03:31N 45°13' E 012°16'2 3.3
2017-Jan-12 03:00N 45°12' E 012°18'2 3.7 1018.7
2017-Jan-12 02:31N 45°13' E 012°16'2 3.3
2017-Jan-12 02:00N 45°12' E 012°18'2 3.3 1018.8
2017-Jan-12 01:28N 45°13' E 012°16'2 3.6
2017-Jan-12 01:00N 45°12' E 012°18'2 3.3 1018.7
2017-Jan-12 00:28N 45°13' E 012°16'2 3.6
2017-Jan-12 00:00N 45°12' E 012°18'2 3.7 1018.9
2017-Jan-11 23:31N 45°13' E 012°16'2 3.3
2017-Jan-11 23:00N 45°12' E 012°18'2 3.7 1019.2
2017-Jan-11 22:31N 45°13' E 012°16'2 3.3
2017-Jan-11 22:00N 45°12' E 012°18'2 3.7 1019.0
2017-Jan-11 21:31N 45°13' E 012°16'2 3.3
2017-Jan-11 21:00N 45°12' E 012°18'2 3.7 1018.8
2017-Jan-11 20:31N 45°13' E 012°16'2 3.3
2017-Jan-11 20:00N 45°12' E 012°18'2 3.7 1019.2
2017-Jan-11 19:31N 45°13' E 012°16'2 3.3
2017-Jan-11 19:00N 45°12' E 012°18'2 3.7 1019.6
2017-Jan-11 18:31N 45°13' E 012°16'2 3.3
2017-Jan-11 18:00N 45°12' E 012°18'2 3.7 1019.1
2017-Jan-11 17:31N 45°13' E 012°16'2 3.3
2017-Jan-11 17:00N 45°12' E 012°18'2 3.3 1020.1
2017-Jan-11 16:28N 45°13' E 012°16'2 3.6
2017-Jan-11 16:00N 45°12' E 012°18'2 3.7 1019.8
2017-Jan-11 15:31N 45°13' E 012°16'2 3.3
2017-Jan-11 15:00N 45°12' E 012°18'2 3.7 1019.5
2017-Jan-11 14:31N 45°13' E 012°16'2 3.3
2017-Jan-11 14:00N 45°12' E 012°18'2 3.7 1020.9
2017-Jan-11 13:31N 45°13' E 012°16'2 3.3
2017-Jan-11 13:00N 45°12' E 012°18'0 0.0 1021.4
2017-Jan-11 12:00N 45°12' E 012°18'2 3.7 1022.0
2017-Jan-11 11:31N 45°13' E 012°16'2 3.3
2017-Jan-11 11:00N 45°12' E 012°18'2 3.7 1022.3
2017-Jan-11 10:31N 45°13' E 012°16'2 3.3
2017-Jan-11 10:00N 45°12' E 012°18'2 3.7 1022.8
2017-Jan-11 09:31N 45°13' E 012°16'2 3.3
2017-Jan-11 09:00N 45°12' E 012°18'2 3.7 1022.5
2017-Jan-11 08:31N 45°13' E 012°16'2 3.3
2017-Jan-11 08:00N 45°12' E 012°18'2 3.7 1022.0
2017-Jan-11 07:31N 45°13' E 012°16'2 3.3
2017-Jan-11 07:00N 45°12' E 012°18'2 3.7 1021.4
2017-Jan-11 06:31N 45°13' E 012°16'2 3.3
2017-Jan-11 06:00N 45°12' E 012°18'2 3.7 1020.4
2017-Jan-11 05:31N 45°13' E 012°16'2 3.3
2017-Jan-11 05:00N 45°12' E 012°18'2 3.7 1019.9
2017-Jan-11 04:31N 45°13' E 012°16'2 3.3
2017-Jan-11 04:00N 45°12' E 012°18'2 3.7 1019.4
2017-Jan-11 03:31N 45°13' E 012°16'2 3.3
2017-Jan-11 03:00N 45°12' E 012°18'2 3.7 1019.1
2017-Jan-11 02:31N 45°13' E 012°16'2 3.3
2017-Jan-11 02:00N 45°12' E 012°18'2 3.7 1019.0
2017-Jan-11 01:31N 45°13' E 012°16'2 3.3
2017-Jan-11 01:00N 45°12' E 012°18'2 3.7 1018.7
2017-Jan-11 00:31N 45°13' E 012°16'2 3.3
2017-Jan-11 00:00N 45°12' E 012°18'2 3.7 1018.5
2017-Jan-10 23:31N 45°13' E 012°16'2 3.3
2017-Jan-10 23:00N 45°12' E 012°18'2 3.7 1018.2
2017-Jan-10 22:31N 45°13' E 012°16'2 3.3
2017-Jan-10 22:00N 45°12' E 012°18'2 3.7 1017.8
2017-Jan-10 21:31N 45°13' E 012°16'2 3.3
2017-Jan-10 21:00N 45°12' E 012°18'2 3.3 1017.3
2017-Jan-10 20:28N 45°13' E 012°16'2 3.6
2017-Jan-10 20:00N 45°12' E 012°18'2 3.7 1016.8
2017-Jan-10 19:31N 45°13' E 012°16'2 3.3
2017-Jan-10 19:00N 45°12' E 012°18'2 4.0 1015.8
2017-Jan-10 18:33N 45°13' E 012°16'2 3.1
2017-Jan-10 18:00N 45°12' E 012°18'511.3 1015.5
2017-Jan-10 17:33N 45°14' E 012°24'1010.3
2017-Jan-10 16:34N 45°13' E 012°39'916.4
2017-Jan-10 16:00N 45°06' E 012°48'4 9.7 1014.8
2017-Jan-10 15:34N 45°03' E 012°52'915.6
2017-Jan-10 15:00N 44°54' E 012°54'614.2 1014.1
2017-Jan-10 14:33N 44°49' E 012°59'915.1
2017-Jan-10 14:00N 44°42' E 013°06'715.0 1014.0
2017-Jan-10 13:30N 44°35' E 013°06'611.9
2017-Jan-10 13:00N 44°30' E 013°12'   1013.9

Dump ship's entire track history